Time;durP1;ratioP1;P1;durP2;ratioP2;P2;SDS_P1;SDS_P2;PMS_P1;PMS_P2;Temp;Humidity;BMP_temperature;BMP_pressure;BME280_temperature;BME280_humidity;BME280_pressure;Samples;Min_cycle;Max_cycle;Signal;HPM_P1;HPM_P2
2021/08/16 00:00:29;;;;;;;6.20;4.28;;;19.60;99.90;;;;;;5020389;28;20133;-80
2021/08/16 00:02:56;;;;;;;6.70;4.43;;;19.50;99.90;;;;;;5021391;28;20085;-78
2021/08/16 00:05:25;;;;;;;6.32;4.18;;;19.50;99.90;;;;;;5021743;28;20061;-81
2021/08/16 00:07:52;;;;;;;6.75;4.88;;;19.40;99.90;;;;;;5022527;28;20109;-81
2021/08/16 00:10:19;;;;;;;5.68;4.28;;;19.30;99.90;;;;;;5022064;28;20136;-82
2021/08/16 00:12:46;;;;;;;6.63;4.47;;;19.20;99.90;;;;;;5024829;28;20085;-81
2021/08/16 00:15:13;;;;;;;6.47;4.53;;;19.10;99.90;;;;;;5023774;28;20080;-83
2021/08/16 00:17:40;;;;;;;9.43;4.90;;;19.00;99.90;;;;;;5022910;28;20136;-80
2021/08/16 00:20:08;;;;;;;10.63;4.70;;;18.90;99.90;;;;;;5022059;28;20080;-81
2021/08/16 00:22:36;;;;;;;15.35;4.97;;;18.70;99.90;;;;;;5021498;28;20145;-81
2021/08/16 00:25:04;;;;;;;11.35;5.05;;;18.60;99.90;;;;;;5021002;28;20473;-81
2021/08/16 00:27:31;;;;;;;12.07;4.53;;;18.50;99.90;;;;;;5022974;28;20128;-82
2021/08/16 00:29:58;;;;;;;9.57;4.85;;;18.50;99.90;;;;;;5022539;28;20129;-83
2021/08/16 00:32:25;;;;;;;5.80;4.35;;;18.40;99.90;;;;;;5025346;28;20053;-82
2021/08/16 00:34:52;;;;;;;10.45;4.10;;;18.30;99.90;;;;;;5025953;28;20462;-82
2021/08/16 00:37:19;;;;;;;10.52;4.45;;;18.20;99.90;;;;;;5026641;28;20479;-81
2021/08/16 00:39:47;;;;;;;10.43;4.75;;;18.00;99.90;;;;;;5027183;28;20056;-82
2021/08/16 00:42:14;;;;;;;7.75;4.18;;;18.00;99.90;;;;;;5025830;28;20129;-82
2021/08/16 00:44:41;;;;;;;9.07;4.38;;;18.00;99.90;;;;;;5026103;28;20073;-81
2021/08/16 00:47:09;;;;;;;9.77;4.53;;;18.00;99.90;;;;;;5026174;28;20122;-83
2021/08/16 00:49:36;;;;;;;7.60;4.15;;;18.00;99.90;;;;;;5024989;28;20128;-82
2021/08/16 00:52:03;;;;;;;8.52;4.18;;;17.90;99.90;;;;;;5023152;28;20088;-83
2021/08/16 00:54:30;;;;;;;10.43;4.50;;;17.90;99.90;;;;;;5024537;28;20085;-82
2021/08/16 00:57:00;;;;;;;14.15;4.70;;;17.80;99.90;;;;;;5023019;28;20125;-82
2021/08/16 00:59:27;;;;;;;6.32;3.80;;;17.80;99.90;;;;;;5022581;28;20174;-81
2021/08/16 01:01:54;;;;;;;9.57;4.32;;;17.70;99.90;;;;;;5024481;28;20141;-79
2021/08/16 01:04:21;;;;;;;15.18;4.25;;;17.60;99.90;;;;;;5021970;28;20135;-80
2021/08/16 01:06:48;;;;;;;12.98;4.20;;;17.60;99.90;;;;;;5024157;28;20073;-78
2021/08/16 01:09:16;;;;;;;7.25;4.05;;;17.60;99.90;;;;;;5027570;28;20108;-80
2021/08/16 01:11:43;;;;;;;7.50;4.22;;;17.50;99.90;;;;;;5028165;28;20077;-83
2021/08/16 01:14:11;;;;;;;6.60;3.70;;;17.50;99.90;;;;;;5025076;28;20089;-81
2021/08/16 01:16:38;;;;;;;9.38;4.03;;;17.50;99.90;;;;;;5042608;23;20054;-81
2021/08/16 01:19:07;;;;;;;10.52;4.65;;;17.40;99.90;;;;;;4999222;28;20133;-79
2021/08/16 01:21:38;;;;;;;10.00;4.22;;;17.40;99.90;;;;;;4996574;28;20050;-79
2021/08/16 01:24:06;;;;;;;8.68;4.03;;;17.30;99.90;;;;;;4997133;28;20133;-78
2021/08/16 01:26:34;;;;;;;13.68;4.10;;;17.30;99.90;;;;;;4999743;28;20055;-78
2021/08/16 01:29:03;;;;;;;10.63;3.97;;;17.30;99.90;;;;;;5003935;28;20149;-79
2021/08/16 01:31:30;;;;;;;8.93;3.95;;;17.30;99.90;;;;;;5004364;28;20055;-79
2021/08/16 01:33:57;;;;;;;9.48;3.85;;;17.40;99.90;;;;;;5002809;28;20050;-79
2021/08/16 01:36:27;;;;;;;8.18;3.58;;;17.40;99.90;;;;;;5001896;28;20054;-79
2021/08/16 01:38:54;;;;;;;10.13;3.90;;;17.30;99.90;;;;;;5000772;28;20107;-79
2021/08/16 01:41:21;;;;;;;9.93;4.07;;;17.30;99.90;;;;;;5001167;28;20050;-79
2021/08/16 01:43:50;;;;;;;10.50;4.70;;;17.30;99.90;;;;;;5002970;28;20050;-80
2021/08/16 01:46:17;;;;;;;9.90;4.60;;;17.30;99.90;;;;;;5002625;28;20097;-79
2021/08/16 01:48:49;;;;;;;8.25;3.95;;;17.30;99.90;;;;;;5003212;28;20058;-79
2021/08/16 01:51:16;;;;;;;8.40;3.90;;;17.30;99.90;;;;;;5004101;28;20050;-78
2021/08/16 01:53:43;;;;;;;8.68;3.65;;;17.40;99.90;;;;;;5002870;28;20316;-79
2021/08/16 01:56:10;;;;;;;8.35;3.67;;;17.40;99.90;;;;;;5000382;28;20074;-79
2021/08/16 01:58:38;;;;;;;7.60;3.58;;;17.30;99.90;;;;;;4998225;28;20084;-81
2021/08/16 02:01:07;;;;;;;8.55;3.60;;;17.30;99.90;;;;;;4998346;28;20058;-80
2021/08/16 02:03:36;;;;;;;9.27;3.15;;;17.30;99.90;;;;;;4998544;28;20082;-81
2021/08/16 02:06:06;;;;;;;8.60;3.20;;;17.40;99.90;;;;;;4997925;28;20051;-81
2021/08/16 02:08:33;;;;;;;7.47;3.50;;;17.50;99.90;;;;;;4995923;28;20058;-78
2021/08/16 02:11:00;;;;;;;10.35;3.28;;;17.40;99.90;;;;;;4994492;28;20105;-78
2021/08/16 02:13:28;;;;;;;8.82;4.10;;;17.40;99.90;;;;;;4994034;28;20137;-78
2021/08/16 02:15:54;;;;;;;10.32;3.80;;;17.40;99.90;;;;;;4993398;28;20073;-77
2021/08/16 02:18:23;;;;;;;9.10;3.25;;;17.40;99.90;;;;;;4993787;28;20128;-78
2021/08/16 02:20:49;;;;;;;9.45;3.67;;;17.40;99.90;;;;;;4994783;28;20471;-79
2021/08/16 02:23:16;;;;;;;8.93;3.42;;;17.40;99.90;;;;;;4995839;28;20128;-79
2021/08/16 02:25:43;;;;;;;6.70;3.53;;;17.50;99.90;;;;;;4994717;28;20133;-77
2021/08/16 02:28:10;;;;;;;9.80;5.00;;;17.40;99.90;;;;;;4994060;28;20054;-79
2021/08/16 02:30:37;;;;;;;8.05;3.67;;;17.50;99.90;;;;;;4993655;28;20050;-78
2021/08/16 02:33:04;;;;;;;6.97;3.50;;;17.50;99.90;;;;;;4993624;28;20092;-78
2021/08/16 02:35:32;;;;;;;6.55;3.53;;;17.50;99.90;;;;;;4994354;28;20129;-77
2021/08/16 02:37:59;;;;;;;9.30;3.65;;;17.50;99.90;;;;;;4994571;28;20089;-78
2021/08/16 02:40:26;;;;;;;12.45;3.90;;;17.50;99.90;;;;;;4996552;28;20050;-79
2021/08/16 02:42:53;;;;;;;6.63;3.42;;;17.50;99.90;;;;;;4997290;28;20073;-79
2021/08/16 02:45:19;;;;;;;7.85;3.75;;;17.50;99.90;;;;;;4997242;28;20093;-79
2021/08/16 02:47:47;;;;;;;8.75;3.53;;;17.50;99.90;;;;;;4998299;28;20046;-79
2021/08/16 02:50:14;;;;;;;5.72;3.47;;;17.40;99.90;;;;;;4998931;28;20096;-78
2021/08/16 02:52:42;;;;;;;9.40;3.70;;;17.40;99.90;;;;;;5000481;28;20149;-79
2021/08/16 02:55:10;;;;;;;12.07;3.67;;;17.40;99.90;;;;;;4998528;28;20053;-79
2021/08/16 02:57:37;;;;;;;9.13;3.72;;;17.30;99.90;;;;;;4994734;28;20129;-78
2021/08/16 03:00:06;;;;;;;7.47;3.47;;;17.40;99.90;;;;;;4995105;28;20133;-79
2021/08/16 03:02:32;;;;;;;7.75;3.63;;;17.40;99.90;;;;;;4994998;28;20138;-78
2021/08/16 03:04:59;;;;;;;7.78;3.70;;;17.40;99.90;;;;;;4994725;28;20133;-79
2021/08/16 03:07:26;;;;;;;7.88;3.58;;;17.40;99.90;;;;;;4995465;28;20129;-79
2021/08/16 03:09:54;;;;;;;7.93;3.97;;;17.40;99.90;;;;;;4996108;28;20532;-80
2021/08/16 03:12:21;;;;;;;8.38;3.50;;;17.40;99.90;;;;;;4996977;28;20110;-80
2021/08/16 03:14:48;;;;;;;13.30;3.72;;;17.50;99.90;;;;;;4996661;28;20601;-79
2021/08/16 03:17:15;;;;;;;9.95;4.78;;;17.50;99.90;;;;;;4993805;28;20562;-80
2021/08/16 03:19:42;;;;;;;6.15;3.45;;;17.40;99.90;;;;;;4994707;28;20082;-79
2021/08/16 03:22:09;;;;;;;9.02;3.63;;;17.50;99.90;;;;;;4995395;28;20101;-80
2021/08/16 03:24:36;;;;;;;6.43;3.28;;;17.50;99.90;;;;;;4995808;28;20115;-80
2021/08/16 03:27:04;;;;;;;7.68;3.60;;;17.60;99.90;;;;;;4996250;28;20050;-80
2021/08/16 03:29:32;;;;;;;8.52;3.80;;;17.50;99.90;;;;;;4995999;28;20140;-79
2021/08/16 03:32:00;;;;;;;7.90;3.47;;;17.50;99.90;;;;;;4996011;28;20137;-79
2021/08/16 03:34:28;;;;;;;7.15;3.58;;;17.60;99.90;;;;;;4997163;28;20069;-80
2021/08/16 03:36:54;;;;;;;9.75;3.80;;;17.60;99.90;;;;;;4997275;28;20046;-78
2021/08/16 03:39:21;;;;;;;7.70;3.90;;;17.50;99.90;;;;;;5000938;28;20069;-79
2021/08/16 03:41:48;;;;;;;9.02;4.03;;;17.40;99.90;;;;;;5003016;28;20057;-79
2021/08/16 03:44:16;;;;;;;11.00;4.05;;;17.40;99.90;;;;;;5002474;28;20047;-79
2021/08/16 03:46:46;;;;;;;9.65;3.70;;;17.30;99.90;;;;;;5006362;28;20112;-79
2021/08/16 03:49:13;;;;;;;7.25;3.70;;;17.20;99.90;;;;;;4998980;28;20054;-77
2021/08/16 03:51:40;;;;;;;13.48;3.90;;;17.20;99.90;;;;;;4997024;28;20093;-78
2021/08/16 03:54:07;;;;;;;9.55;3.83;;;17.20;99.90;;;;;;4996779;28;20082;-79
2021/08/16 03:56:34;;;;;;;7.22;3.63;;;17.20;99.90;;;;;;4996309;28;20137;-78
2021/08/16 03:59:02;;;;;;;9.75;3.95;;;17.20;99.90;;;;;;4996351;28;20102;-78
2021/08/16 04:01:30;;;;;;;11.13;4.15;;;17.30;99.90;;;;;;4995086;28;20057;-78
2021/08/16 04:04:00;;;;;;;11.60;4.13;;;17.30;99.90;;;;;;4995270;28;20130;-78
2021/08/16 04:06:27;;;;;;;11.02;4.32;;;17.30;99.90;;;;;;4995425;28;20426;-80
2021/08/16 04:08:54;;;;;;;9.13;4.40;;;17.30;99.90;;;;;;4998487;28;20054;-79
2021/08/16 04:11:21;;;;;;;9.60;3.85;;;17.30;99.90;;;;;;4998090;28;20125;-78
2021/08/16 04:13:48;;;;;;;11.98;4.22;;;17.30;99.90;;;;;;4997863;28;20089;-79
2021/08/16 04:16:15;;;;;;;11.70;4.00;;;17.30;99.90;;;;;;4997803;28;20089;-79
2021/08/16 04:18:43;;;;;;;8.02;3.78;;;17.30;99.90;;;;;;4998300;28;20081;-79
2021/08/16 04:21:10;;;;;;;8.75;4.00;;;17.30;99.90;;;;;;4997529;28;20101;-79
2021/08/16 04:23:37;;;;;;;11.38;4.40;;;17.30;99.90;;;;;;4997375;28;20050;-80
2021/08/16 04:26:04;;;;;;;13.45;4.20;;;17.30;99.90;;;;;;4997304;28;20120;-79
2021/08/16 04:28:31;;;;;;;10.15;4.20;;;17.30;99.90;;;;;;4997906;28;20082;-80
2021/08/16 04:30:58;;;;;;;10.15;5.05;;;17.30;99.90;;;;;;4997717;28;20382;-78
2021/08/16 04:33:25;;;;;;;11.15;4.28;;;17.30;99.90;;;;;;4997105;28;20137;-79
2021/08/16 04:35:54;;;;;;;9.73;4.30;;;17.30;99.90;;;;;;4997161;28;20089;-80
2021/08/16 04:38:23;;;;;;;13.90;4.95;;;17.30;99.90;;;;;;4998952;28;20046;-80
2021/08/16 04:40:50;;;;;;;8.13;4.28;;;17.30;99.90;;;;;;4998526;28;20046;-79
2021/08/16 04:43:17;;;;;;;13.20;4.60;;;17.30;99.90;;;;;;4998097;28;20095;-80
2021/08/16 04:45:44;;;;;;;9.30;4.05;;;17.20;99.90;;;;;;4999192;28;20539;-79
2021/08/16 04:48:11;;;;;;;8.85;4.63;;;17.20;99.90;;;;;;4999444;28;20074;-79
2021/08/16 04:50:38;;;;;;;10.50;4.53;;;17.20;99.90;;;;;;4999496;28;20077;-80
2021/08/16 04:53:07;;;;;;;10.60;4.22;;;17.20;99.90;;;;;;4999148;28;20050;-79
2021/08/16 04:55:34;;;;;;;8.85;4.03;;;17.20;99.90;;;;;;4998959;28;20185;-79
2021/08/16 04:58:00;;;;;;;9.35;4.22;;;17.30;99.90;;;;;;4998560;28;20129;-79
2021/08/16 05:00:27;;;;;;;10.40;4.15;;;17.30;99.90;;;;;;4999527;28;20078;-79
2021/08/16 05:02:55;;;;;;;8.88;4.43;;;17.30;99.90;;;;;;4998793;28;20105;-80
2021/08/16 05:05:24;;;;;;;12.23;4.57;;;17.30;99.90;;;;;;5000956;28;20065;-79
2021/08/16 05:07:53;;;;;;;10.43;4.65;;;17.30;99.90;;;;;;5001160;28;20386;-80
2021/08/16 05:10:22;;;;;;;8.35;4.70;;;17.30;99.90;;;;;;5000175;28;20138;-79
2021/08/16 05:12:50;;;;;;;11.45;5.07;;;17.30;99.90;;;;;;4999833;28;20133;-80
2021/08/16 05:15:17;;;;;;;8.30;4.80;;;17.30;99.90;;;;;;4999950;28;20482;-79
2021/08/16 05:17:44;;;;;;;10.88;4.80;;;17.30;99.90;;;;;;4998490;28;20134;-79
2021/08/16 05:20:13;;;;;;;9.40;4.65;;;17.30;99.90;;;;;;4998394;28;20046;-79
2021/08/16 05:22:46;;;;;;;14.75;5.18;;;17.30;99.90;;;;;;4999006;28;20054;-80
2021/08/16 05:25:14;;;;;;;7.43;4.22;;;17.30;99.90;;;;;;4999872;28;20078;-79
2021/08/16 05:27:43;;;;;;;12.32;4.70;;;17.30;99.90;;;;;;4999908;28;20078;-80
2021/08/16 05:30:10;;;;;;;7.80;4.63;;;17.30;99.90;;;;;;5000808;28;20046;-80
2021/08/16 05:32:37;;;;;;;7.70;4.30;;;17.40;99.90;;;;;;5001317;28;20085;-80
2021/08/16 05:35:05;;;;;;;7.85;4.40;;;17.40;99.90;;;;;;5003567;28;20093;-78
2021/08/16 05:37:32;;;;;;;12.93;4.20;;;17.40;99.90;;;;;;4995739;28;20124;-79
2021/08/16 05:39:59;;;;;;;12.50;5.25;;;17.40;99.90;;;;;;4995557;28;20129;-79
2021/08/16 05:42:26;;;;;;;11.98;5.00;;;17.40;99.90;;;;;;4996011;28;20141;-80
2021/08/16 05:44:54;;;;;;;11.45;4.43;;;17.40;99.90;;;;;;4995462;28;20431;-78
2021/08/16 05:47:21;;;;;;;9.65;4.78;;;17.50;99.90;;;;;;4994849;28;20129;-78
2021/08/16 05:49:48;;;;;;;12.82;4.57;;;17.50;99.90;;;;;;4994087;28;20052;-78
2021/08/16 05:52:15;;;;;;;11.00;5.07;;;17.50;99.90;;;;;;4994457;28;20137;-79
2021/08/16 05:54:42;;;;;;;13.13;5.30;;;17.60;99.90;;;;;;4994441;28;20177;-77
2021/08/16 05:57:08;;;;;;;11.32;4.78;;;17.60;99.90;;;;;;4994967;28;20082;-79
2021/08/16 05:59:39;;;;;;;14.52;5.38;;;17.70;99.90;;;;;;4994690;28;20106;-78
2021/08/16 06:02:07;;;;;;;13.43;5.03;;;17.70;99.90;;;;;;4994604;28;20054;-77
2021/08/16 06:04:34;;;;;;;12.65;5.07;;;17.80;99.90;;;;;;4994663;28;20054;-77
2021/08/16 06:07:01;;;;;;;11.27;5.05;;;17.80;99.90;;;;;;4995195;28;20129;-78
2021/08/16 06:09:29;;;;;;;11.45;4.90;;;17.90;99.90;;;;;;4993945;28;20136;-78
2021/08/16 06:11:56;;;;;;;11.13;5.10;;;18.00;99.90;;;;;;4994093;28;20395;-78
2021/08/16 06:14:23;;;;;;;14.70;5.47;;;18.10;99.90;;;;;;4993776;28;20141;-78
2021/08/16 06:16:50;;;;;;;10.98;4.47;;;18.10;99.90;;;;;;4993699;28;20435;-78
2021/08/16 06:19:18;;;;;;;8.98;4.50;;;18.20;99.90;;;;;;4993864;28;20060;-77
2021/08/16 06:21:45;;;;;;;16.25;4.70;;;18.20;99.90;;;;;;4994206;28;20309;-77
2021/08/16 06:24:12;;;;;;;12.27;4.80;;;18.20;99.90;;;;;;4993879;28;20092;-77
2021/08/16 06:26:40;;;;;;;11.40;4.90;;;18.20;99.90;;;;;;4994381;28;20138;-80
2021/08/16 06:29:07;;;;;;;10.45;5.10;;;18.20;99.90;;;;;;4994376;28;20060;-78
2021/08/16 06:31:34;;;;;;;8.02;4.60;;;18.20;99.90;;;;;;4995980;28;20133;-79
2021/08/16 06:34:01;;;;;;;10.23;4.65;;;18.10;99.90;;;;;;4994139;28;20054;-77
2021/08/16 06:36:30;;;;;;;10.98;4.60;;;18.20;99.90;;;;;;4993837;28;20419;-78
2021/08/16 06:38:56;;;;;;;10.48;4.50;;;18.30;99.90;;;;;;4993630;28;20078;-78
2021/08/16 06:41:23;;;;;;;9.27;4.53;;;18.40;99.90;;;;;;4993899;28;20435;-77
2021/08/16 06:43:51;;;;;;;9.32;4.88;;;18.40;99.90;;;;;;4993362;28;20141;-78
2021/08/16 06:46:18;;;;;;;6.97;4.35;;;18.40;99.90;;;;;;4995034;28;20114;-77
2021/08/16 06:48:45;;;;;;;10.68;4.55;;;18.50;99.90;;;;;;4995151;28;20077;-78
2021/08/16 06:51:11;;;;;;;11.25;4.57;;;18.40;99.90;;;;;;4995436;28;20066;-78
2021/08/16 06:53:40;;;;;;;10.70;4.38;;;18.50;99.90;;;;;;4995072;28;20050;-78
2021/08/16 06:56:07;;;;;;;33.97;6.20;;;18.40;99.90;;;;;;4994577;28;20082;-78
2021/08/16 06:58:33;;;;;;;11.82;4.50;;;18.40;99.90;;;;;;4996006;28;20093;-77
2021/08/16 07:01:00;;;;;;;13.10;4.70;;;18.40;99.90;;;;;;5006826;28;20092;-77
2021/08/16 07:03:29;;;;;;;10.23;4.20;;;18.40;99.90;;;;;;5003035;28;20057;-75
2021/08/16 07:05:56;;;;;;;12.65;4.50;;;18.40;99.90;;;;;;5006215;28;20065;-78
2021/08/16 07:08:23;;;;;;;8.73;4.43;;;18.40;99.90;;;;;;5009229;28;20097;-78
2021/08/16 07:10:51;;;;;;;9.75;4.15;;;18.40;99.90;;;;;;5007348;28;20055;-77
2021/08/16 07:13:18;;;;;;;15.45;4.70;;;18.40;99.90;;;;;;4994869;28;20137;-78
2021/08/16 07:15:48;;;;;;;8.32;4.57;;;18.50;99.90;;;;;;5010062;23;21025;-81
2021/08/16 07:18:16;;;;;;;13.45;5.63;;;18.60;99.90;;;;;;5016621;28;20050;-79
2021/08/16 07:20:44;;;;;;;13.73;5.32;;;18.80;99.90;;;;;;5020870;28;20050;-81
2021/08/16 07:23:11;;;;;;;10.70;4.85;;;18.80;99.90;;;;;;5021678;28;20053;-80
2021/08/16 07:25:38;;;;;;;9.77;4.80;;;18.90;99.90;;;;;;5020530;28;20073;-80
2021/08/16 07:28:07;;;;;;;14.38;4.70;;;18.80;99.90;;;;;;5021592;28;20216;-80
2021/08/16 07:30:34;;;;;;;15.68;4.50;;;18.90;99.90;;;;;;5021139;28;20145;-81
2021/08/16 07:33:01;;;;;;;8.75;4.03;;;19.20;99.90;;;;;;5020841;28;20121;-80
2021/08/16 07:35:28;;;;;;;10.65;3.97;;;20.10;99.90;;;;;;5005675;28;20055;-81
2021/08/16 07:37:56;;;;;;;11.38;3.67;;;20.70;99.90;;;;;;4991395;28;20088;-80
2021/08/16 07:40:23;;;;;;;9.50;3.80;;;21.20;99.90;;;;;;4981917;28;20082;-81
2021/08/16 07:42:51;;;;;;;9.07;3.25;;;21.80;99.90;;;;;;4982165;28;20051;-83
2021/08/16 07:45:19;;;;;;;8.15;3.88;;;22.20;99.90;;;;;;4982384;28;20141;-80
2021/08/16 07:47:46;;;;;;;10.05;3.90;;;22.70;99.90;;;;;;4981905;28;20137;-79
2021/08/16 07:50:13;;;;;;;9.25;3.15;;;22.90;99.90;;;;;;4981240;28;20074;-80
2021/08/16 07:52:42;;;;;;;8.82;3.40;;;23.10;99.90;;;;;;4981034;28;20082;-82
2021/08/16 07:55:10;;;;;;;21.40;4.45;;;23.20;99.90;;;;;;4982083;28;20134;-82
2021/08/16 07:57:37;;;;;;;7.70;3.60;;;23.30;99.90;;;;;;4981217;28;20102;-80
2021/08/16 08:00:06;;;;;;;14.70;4.72;;;23.40;99.90;;;;;;4979954;28;20145;-80
2021/08/16 08:02:40;;;;;;;9.73;3.80;;;23.30;99.90;;;;;;4983429;28;20182;-81
2021/08/16 08:05:09;;;;;;;10.80;4.80;;;23.30;99.90;;;;;;4985443;28;20101;-80
2021/08/16 08:07:35;;;;;;;9.70;3.55;;;23.50;99.90;;;;;;4982566;28;20111;-81
2021/08/16 08:10:02;;;;;;;9.48;3.88;;;23.60;99.90;;;;;;4981217;28;20079;-82
2021/08/16 08:12:29;;;;;;;7.97;3.78;;;23.40;99.90;;;;;;4986281;28;20086;-80
2021/08/16 08:14:56;;;;;;;8.93;4.20;;;23.40;99.90;;;;;;4987113;28;20050;-82
2021/08/16 08:17:23;;;;;;;12.05;5.30;;;23.00;99.90;;;;;;4981636;28;20086;-81
2021/08/16 08:19:54;;;;;;;14.82;4.88;;;22.60;99.90;;;;;;4981321;28;20055;-81
2021/08/16 08:22:20;;;;;;;11.52;5.10;;;22.40;99.90;;;;;;4988835;28;20451;-80
2021/08/16 08:24:47;;;;;;;12.48;4.45;;;21.90;99.90;;;;;;4979302;28;20118;-79
2021/08/16 08:27:14;;;;;;;9.05;4.30;;;21.70;99.90;;;;;;4979705;28;20597;-79
2021/08/16 08:29:41;;;;;;;9.35;5.07;;;21.50;99.90;;;;;;4980966;28;20484;-79
2021/08/16 08:32:08;;;;;;;9.55;4.40;;;21.30;99.90;;;;;;4981113;28;20137;-80
2021/08/16 08:34:36;;;;;;;9.98;4.20;;;21.00;99.90;;;;;;4981589;28;20106;-78
2021/08/16 08:37:10;;;;;;;12.50;4.70;;;20.90;99.90;;;;;;4981471;28;20125;-79
2021/08/16 08:39:37;;;;;;;8.35;4.30;;;20.90;99.90;;;;;;4981003;28;20106;-79
2021/08/16 08:42:04;;;;;;;10.82;4.70;;;21.00;99.90;;;;;;4979983;28;20055;-78
2021/08/16 08:44:32;;;;;;;8.70;4.38;;;21.00;99.90;;;;;;4979159;28;20141;-80
2021/08/16 08:46:59;;;;;;;9.45;4.25;;;20.80;99.90;;;;;;4979355;28;20051;-79
2021/08/16 08:49:26;;;;;;;9.32;4.30;;;20.80;99.90;;;;;;4979569;28;20134;-79
2021/08/16 08:51:53;;;;;;;8.30;4.60;;;20.70;99.90;;;;;;4978346;28;20118;-80
2021/08/16 08:54:22;;;;;;;9.90;4.20;;;20.70;99.90;;;;;;4982847;28;20110;-80
2021/08/16 08:56:50;;;;;;;9.98;4.82;;;20.80;99.90;;;;;;4982736;28;20299;-79
2021/08/16 08:59:17;;;;;;;10.15;4.72;;;20.80;99.90;;;;;;4983288;28;20042;-80
2021/08/16 09:01:52;;;;;;;12.43;5.22;;;21.00;99.90;;;;;;4980243;28;20130;-80
2021/08/16 09:04:19;;;;;;;8.27;4.00;;;21.20;99.90;;;;;;4989665;28;20042;-78
2021/08/16 09:06:46;;;;;;;11.55;4.13;;;21.60;99.90;;;;;;4987901;28;20141;-79
2021/08/16 09:09:13;;;;;;;11.35;4.57;;;21.80;99.90;;;;;;4994960;28;20042;-80
2021/08/16 09:11:47;;;;;;;9.68;4.10;;;21.80;99.90;;;;;;5001116;28;20050;-80
2021/08/16 09:14:14;;;;;;;8.48;3.65;;;21.90;99.90;;;;;;5000426;28;20137;-78
2021/08/16 09:16:45;;;;;;;10.60;3.97;;;21.90;99.90;;;;;;4998932;28;20189;-78
2021/08/16 09:19:14;;;;;;;7.30;4.03;;;21.90;99.90;;;;;;5001766;28;20046;-79
2021/08/16 09:21:43;;;;;;;7.53;4.38;;;21.70;99.90;;;;;;5002420;28;20137;-79
2021/08/16 09:24:10;;;;;;;6.30;3.63;;;21.80;99.90;;;;;;5001617;28;20452;-79
2021/08/16 09:26:40;;;;;;;8.65;3.90;;;21.80;99.90;;;;;;5001761;28;20114;-82
2021/08/16 09:29:13;;;;;;;12.15;4.72;;;21.70;99.90;;;;;;4992172;28;20515;-80
2021/08/16 09:31:54;;;;;;;10.30;4.53;;;21.50;99.90;;;;;;4984101;28;20161;-80
2021/08/16 09:34:33;;;;;;;11.68;4.20;;;21.30;99.90;;;;;;4993733;28;20082;-82
2021/08/16 09:37:03;;;;;;;8.07;4.32;;;21.10;99.90;;;;;;4995375;28;20359;-80
2021/08/16 09:39:32;;;;;;;10.27;3.97;;;21.10;99.90;;;;;;4992049;28;20102;-80
2021/08/16 09:42:00;;;;;;;7.25;3.92;;;21.00;99.90;;;;;;5002266;28;20074;-81
2021/08/16 09:44:29;;;;;;;10.40;4.20;;;21.00;99.90;;;;;;5001199;28;20110;-81
2021/08/16 09:47:01;;;;;;;7.25;3.80;;;20.90;99.90;;;;;;4994671;28;20065;-81
2021/08/16 09:49:28;;;;;;;9.00;3.60;;;21.10;99.90;;;;;;4994729;28;20050;-79
2021/08/16 09:52:03;;;;;;;10.07;4.10;;;21.10;99.90;;;;;;4996866;28;20110;-80
2021/08/16 09:54:31;;;;;;;8.52;4.15;;;21.00;99.90;;;;;;4993017;28;20414;-80
2021/08/16 09:56:59;;;;;;;9.80;4.10;;;20.90;99.90;;;;;;4991014;28;20114;-81
2021/08/16 09:59:28;;;;;;;11.13;4.25;;;20.90;99.90;;;;;;4994821;28;20085;-79
2021/08/16 10:01:56;;;;;;;7.22;4.20;;;21.20;99.90;;;;;;5004137;28;20073;-78
2021/08/16 10:04:23;;;;;;;9.57;3.80;;;21.30;99.90;;;;;;5004881;28;20054;-80
2021/08/16 10:06:51;;;;;;;6.82;3.70;;;21.70;99.90;;;;;;5005397;28;20082;-80
2021/08/16 10:09:21;;;;;;;9.48;4.05;;;22.00;99.90;;;;;;4997952;28;20109;-79
2021/08/16 10:11:49;;;;;;;10.82;3.75;;;22.20;99.90;;;;;;4985909;28;20062;-80
2021/08/16 10:14:17;;;;;;;9.07;4.05;;;22.30;99.90;;;;;;4987193;28;20065;-81
2021/08/16 10:16:48;;;;;;;9.02;4.50;;;22.60;99.90;;;;;;4997244;28;20096;-80
2021/08/16 10:19:19;;;;;;;11.20;4.10;;;22.70;99.90;;;;;;4997121;28;20102;-80
2021/08/16 10:21:47;;;;;;;8.52;4.25;;;22.70;99.90;;;;;;4997729;28;20070;-81
2021/08/16 10:24:19;;;;;;;8.15;4.07;;;22.50;99.90;;;;;;4995567;28;20074;-82
2021/08/16 10:26:56;;;;;;;13.95;4.35;;;22.40;99.90;;;;;;4997817;28;20077;-81
2021/08/16 10:29:24;;;;;;;12.82;4.00;;;22.40;99.90;;;;;;4995568;28;20046;-80
2021/08/16 10:31:53;;;;;;;10.75;4.53;;;22.40;99.90;;;;;;4996301;28;20081;-82
2021/08/16 10:34:28;;;;;;;9.65;4.10;;;22.20;99.90;;;;;;4995579;28;20057;-80
2021/08/16 10:36:59;;;;;;;11.35;4.20;;;22.00;99.90;;;;;;4993960;28;20053;-79
2021/08/16 10:39:39;;;;;;;6.82;3.83;;;21.80;99.90;;;;;;4996823;28;20084;-79
2021/08/16 10:42:14;;;;;;;9.05;4.53;;;21.60;99.90;;;;;;4997139;28;20046;-81
2021/08/16 10:44:43;;;;;;;8.38;4.07;;;21.50;99.90;;;;;;4996501;28;20081;-81
2021/08/16 10:47:24;;;;;;;8.82;4.18;;;21.40;99.90;;;;;;4994032;28;20138;-79
2021/08/16 10:50:03;;;;;;;10.40;4.78;;;21.20;99.90;;;;;;4993934;28;20125;-77
2021/08/16 10:52:31;;;;;;;9.68;4.60;;;21.10;99.90;;;;;;4992778;28;20061;-82
2021/08/16 10:55:08;;;;;;;8.32;4.20;;;21.10;99.90;;;;;;4996178;28;20188;-81
2021/08/16 10:57:36;;;;;;;10.15;4.32;;;20.90;99.90;;;;;;5004133;28;20085;-79
2021/08/16 11:00:06;;;;;;;10.98;4.80;;;20.70;99.90;;;;;;4998431;28;20085;-81
2021/08/16 11:02:36;;;;;;;9.30;5.07;;;20.30;99.90;;;;;;4996680;28;20109;-80
2021/08/16 11:05:03;;;;;;;10.93;4.60;;;20.00;99.90;;;;;;4990584;28;20504;-80
2021/08/16 11:07:32;;;;;;;9.05;4.57;;;19.60;99.90;;;;;;4985108;28;20051;-83
2021/08/16 11:10:01;;;;;;;4.15;3.30;;;19.20;99.90;;;;;;4990567;28;20046;-81
2021/08/16 11:12:33;;;;;;;4.07;3.05;;;18.90;99.90;;;;;;4991576;28;20502;-81
2021/08/16 11:15:02;;;;;;;5.97;3.03;;;18.70;99.90;;;;;;4993611;28;20046;-81
2021/08/16 11:17:30;;;;;;;5.63;3.65;;;18.60;99.90;;;;;;5006248;28;20060;-82
2021/08/16 11:20:01;;;;;;;8.40;3.80;;;18.60;99.90;;;;;;5029202;28;20133;-82
2021/08/16 11:22:28;;;;;;;4.45;3.47;;;18.50;99.90;;;;;;5027256;28;20108;-81
2021/08/16 11:24:56;;;;;;;4.07;3.42;;;18.40;99.90;;;;;;5033918;28;20049;-80
2021/08/16 11:27:25;;;;;;;4.95;3.60;;;18.40;99.90;;;;;;5002252;28;20077;-83
2021/08/16 11:30:00;;;;;;;7.28;3.90;;;18.30;99.90;;;;;;5003372;28;20050;-80
2021/08/16 11:32:28;;;;;;;5.15;4.57;;;18.20;99.90;;;;;;5007352;28;20074;-82
2021/08/16 11:34:55;;;;;;;6.05;4.20;;;18.10;99.90;;;;;;5007114;28;20070;-83
2021/08/16 11:37:25;;;;;;;6.18;4.25;;;18.20;99.90;;;;;;5006275;28;20077;-85
2021/08/16 11:39:53;;;;;;;6.10;4.60;;;18.20;99.90;;;;;;5006351;28;20061;-84
2021/08/16 11:42:22;;;;;;;6.38;4.40;;;18.20;99.90;;;;;;5003026;28;20093;-80
2021/08/16 11:44:59;;;;;;;6.28;4.90;;;18.30;99.90;;;;;;5004314;28;20077;-83
2021/08/16 11:47:31;;;;;;;8.07;5.57;;;18.20;99.90;;;;;;5007370;28;20046;-84
2021/08/16 11:49:59;;;;;;;7.88;5.45;;;18.40;99.90;;;;;;5008578;28;20069;-83
2021/08/16 11:52:28;;;;;;;9.43;5.78;;;18.60;99.90;;;;;;5007067;28;20057;-82
2021/08/16 11:54:55;;;;;;;7.85;5.80;;;18.80;99.90;;;;;;5005921;28;20054;-80
2021/08/16 11:57:23;;;;;;;10.00;7.25;;;19.00;99.90;;;;;;5003574;28;20084;-81
2021/08/16 11:59:53;;;;;;;8.50;7.70;;;19.10;99.90;;;;;;5003490;28;20106;-80
2021/08/16 12:02:22;;;;;;;11.85;9.00;;;19.00;99.90;;;;;;5003921;28;20133;-81
2021/08/16 12:04:52;;;;;;;9.05;7.70;;;19.00;99.90;;;;;;5003677;28;20104;-81
2021/08/16 12:07:20;;;;;;;9.07;8.07;;;18.80;99.90;;;;;;5003063;28;20118;-80
2021/08/16 12:09:48;;;;;;;11.10;8.85;;;18.80;99.90;;;;;;5002968;28;20046;-81
2021/08/16 12:12:19;;;;;;;11.85;9.88;;;18.70;99.90;;;;;;5000750;28;20137;-80
2021/08/16 12:14:47;;;;;;;11.60;9.25;;;18.50;99.90;;;;;;5002192;28;20057;-81
2021/08/16 12:17:23;;;;;;;13.10;9.68;;;18.30;99.90;;;;;;5002325;28;20114;-80
2021/08/16 12:20:02;;;;;;;12.45;8.07;;;18.20;99.90;;;;;;5003078;28;20153;-82
2021/08/16 12:22:29;;;;;;;14.43;9.65;;;18.00;99.90;;;;;;5009225;28;20042;-79
2021/08/16 12:25:06;;;;;;;12.90;9.13;;;17.80;99.90;;;;;;5009010;28;20135;-80
2021/08/16 12:27:34;;;;;;;13.25;10.05;;;17.70;99.90;;;;;;4991163;28;20057;-79
2021/08/16 12:30:02;;;;;;;10.95;9.75;;;17.60;99.90;;;;;;4995539;28;20102;-80
2021/08/16 12:32:31;;;;;;;14.15;10.27;;;17.50;99.90;;;;;;5001031;28;20082;-80
2021/08/16 12:35:01;;;;;;;14.88;8.80;;;17.60;99.90;;;;;;5004664;28;20618;-80
2021/08/16 12:37:30;;;;;;;12.38;8.48;;;17.60;99.90;;;;;;5004724;28;20050;-81
2021/08/16 12:40:09;;;;;;;13.57;9.52;;;17.60;99.90;;;;;;5005167;28;20129;-79
2021/08/16 12:42:37;;;;;;;10.75;8.48;;;17.70;99.90;;;;;;5005010;28;20137;-79
2021/08/16 12:45:07;;;;;;;15.80;9.50;;;17.70;99.90;;;;;;5004097;28;20093;-81
2021/08/16 12:47:36;;;;;;;14.35;10.10;;;17.80;99.90;;;;;;5004148;28;20078;-79